Buoy 46563

sailwx.info

Track history (hours):
 
Tides and Currents Weather Stations Pressure Air Temp Water Temp Dewpoint Dewpoint Depression Visibility Wind Speed Wind Dir Waves Ship Positions

Drifting buoy 46563

Last reported at 2014-Oct-31 17:00 UTC. Time now 2014-Oct-31 21:29 UTC.
Position N 24°47' W 125°07'.

Water temperature 23.5 ° C

Date/timePositionNaut miles runAvg speedWind from/ knotsBaromVisibWave heightAir tempDewpointWater temp
2014-Oct-31 17:00N 24°47' W 125°07'1 0.2 23.5
2014-Oct-31 14:00N 24°47' W 125°07'1 0.3 23.5
2014-Oct-31 12:00N 24°47' W 125°06'0 0.0 23.6
2014-Oct-31 11:00N 24°47' W 125°06'1 0.5 23.5
2014-Oct-31 10:00N 24°46' W 125°06'0 0.1 23.6
2014-Oct-31 06:00N 24°47' W 125°06'0 0.2 23.5
2014-Oct-31 05:00N 24°46' W 125°06'1 0.3 23.5
2014-Oct-31 02:00N 24°46' W 125°05'0 0.5 23.5
2014-Oct-31 01:00N 24°46' W 125°05'1 0.9 23.6
2014-Oct-31 00:00N 24°45' W 125°05'2 0.9 23.7
2014-Oct-30 22:00N 24°44' W 125°04'0 0.0 23.7
2014-Oct-30 19:00N 24°44' W 125°04'0 0.5 23.5
2014-Oct-30 18:00N 24°43' W 125°04'0 0.3 23.5
2014-Oct-30 17:00N 24°44' W 125°04'2 0.6 23.4
2014-Oct-30 14:00N 24°43' W 125°02'1 0.4 23.4
2014-Oct-30 12:00N 24°43' W 125°01'0 0.1 23.4
2014-Oct-30 10:00N 24°43' W 125°01'1 0.5 23.4
2014-Oct-30 08:00N 24°44' W 125°00'0 0.1 23.5
2014-Oct-30 06:00N 24°44' W 124°60'0 0.5 23.5
2014-Oct-30 05:00N 24°44' W 125°00'1 0.3 23.5
2014-Oct-30 03:00N 24°44' W 124°60'1 0.4 23.5
2014-Oct-30 00:00N 24°43' W 124°58'3 1.3 23.6
2014-Oct-29 22:00N 24°42' W 124°56'0 0.0 23.6
2014-Oct-29 21:00N 24°42' W 124°56'0 0.0 23.5
2014-Oct-29 19:00N 24°42' W 124°56'1 0.2 23.5
2014-Oct-29 15:00N 24°41' W 124°55'2 0.9 23.5
2014-Oct-29 13:00N 24°41' W 124°53'0 0.0 23.5
2014-Oct-29 10:00N 24°41' W 124°53'2 1.7 23.5
2014-Oct-29 09:00N 24°40' W 124°51'1 0.2 23.5
2014-Oct-29 06:00N 24°40' W 124°51'0 0.1 23.5
2014-Oct-29 05:00N 24°40' W 124°51'1 0.4 23.5
2014-Oct-29 02:00N 24°41' W 124°50'0 0.2 23.6
2014-Oct-29 01:00N 24°41' W 124°49'1 1.5 23.6
2014-Oct-29 00:00N 24°41' W 124°48'0 0.0 23.6
2014-Oct-28 22:00N 24°41' W 124°48'0 0.3 23.6
2014-Oct-28 21:00N 24°41' W 124°48'1 1.0 23.6
2014-Oct-28 20:00N 24°42' W 124°47'0 0.1 23.6
2014-Oct-28 18:00N 24°41' W 124°47'2 1.7 23.5
2014-Oct-28 17:00N 24°42' W 124°45'0 0.0 23.5
2014-Oct-28 14:00N 24°42' W 124°45'1 1.1 23.5
2014-Oct-28 13:00N 24°42' W 124°44'0 0.1 23.5
2014-Oct-28 12:00N 24°42' W 124°44'0 0.4 23.5
2014-Oct-28 11:00N 24°42' W 124°44'0 0.0 23.5
2014-Oct-28 10:00N 24°42' W 124°44'2 1.1 23.5
2014-Oct-28 08:00N 24°43' W 124°41'1 0.1 23.5
2014-Oct-28 02:00N 24°43' W 124°41'1 1.3 23.6
2014-Oct-28 01:00N 24°42' W 124°39'1 0.5 23.6
2014-Oct-28 00:00N 24°42' W 124°39'0 0.0 23.6
2014-Oct-27 23:00N 24°42' W 124°39'1 0.9 23.6
2014-Oct-27 22:00N 24°42' W 124°38'1 0.3 23.6
2014-Oct-27 18:00N 24°42' W 124°37'1 0.8 23.4
2014-Oct-27 17:00N 24°42' W 124°36'0 0.0 23.4
2014-Oct-27 16:00N 24°42' W 124°36'0 0.1 23.3
2014-Oct-27 14:00N 24°42' W 124°36'0 0.3 23.4
2014-Oct-27 13:00N 24°42' W 124°36'1 0.3 23.4
2014-Oct-27 11:00N 24°41' W 124°35'0 0.0 23.3
2014-Oct-27 10:00N 24°41' W 124°35'0 0.1 23.3
2014-Oct-27 09:00N 24°41' W 124°35'2 0.7 23.3
2014-Oct-27 06:00N 24°41' W 124°33'1 1.3 23.3
2014-Oct-27 05:00N 24°40' W 124°32'0 0.0 23.3
2014-Oct-27 04:00N 24°40' W 124°32'1 0.7 23.4
2014-Oct-27 03:00N 24°40' W 124°32'2 0.9 23.4
2014-Oct-27 01:00N 24°40' W 124°30'1 0.4 23.4
2014-Oct-26 23:00N 24°41' W 124°29'0 0.2 23.5
2014-Oct-26 22:00N 24°41' W 124°29'1 0.7 23.5
2014-Oct-26 21:00N 24°41' W 124°28'1 1.3 23.4
2014-Oct-26 20:00N 24°41' W 124°27'0 0.1 23.4
2014-Oct-26 18:00N 24°42' W 124°27'1 0.6 23.3
2014-Oct-26 17:00N 24°41' W 124°26'1 0.2 23.3
2014-Oct-26 14:00N 24°41' W 124°25'0 0.1 23.3
2014-Oct-26 13:00N 24°41' W 124°25'0 0.3 23.3
2014-Oct-26 12:00N 24°41' W 124°25'0 0.2 23.3
2014-Oct-26 11:00N 24°41' W 124°25'0 0.5 23.3
2014-Oct-26 10:00N 24°41' W 124°24'0 0.1 23.3
2014-Oct-26 09:00N 24°41' W 124°24'1 1.4 23.3
2014-Oct-26 08:00N 24°41' W 124°23'0 0.2 23.3
2014-Oct-26 06:00N 24°41' W 124°23'0 0.0 23.3
2014-Oct-26 05:00N 24°41' W 124°23'0 0.4 23.3
2014-Oct-26 04:00N 24°40' W 124°23'1 0.4 23.3
2014-Oct-26 02:00N 24°40' W 124°22'1 1.0 23.4
2014-Oct-26 01:00N 24°40' W 124°20'2 0.5 23.4
2014-Oct-25 20:00N 24°40' W 124°18'0 0.1 23.5
2014-Oct-25 19:00N 24°40' W 124°18'1 1.3 23.4
2014-Oct-25 18:00N 24°40' W 124°17'0 0.0 23.4
2014-Oct-25 17:00N 24°40' W 124°17'0 0.1 23.3
2014-Oct-25 13:00N 24°41' W 124°16'0 0.0 23.3
2014-Oct-25 12:00N 24°41' W 124°16'1 0.5 23.4
2014-Oct-25 11:00N 24°40' W 124°16'1 0.4 23.3
2014-Oct-25 09:00N 24°40' W 124°15'0 0.1 23.4
2014-Oct-25 05:00N 24°40' W 124°15'1 1.1 23.4
2014-Oct-25 04:00N 24°39' W 124°13'0 0.1 23.4
2014-Oct-25 01:00N 24°39' W 124°13'1 0.7 23.5
2014-Oct-24 23:00N 24°39' W 124°12'1 0.5 23.7
2014-Oct-24 22:00N 24°39' W 124°11'0 0.0 23.7
2014-Oct-24 21:00N 24°39' W 124°11'1 0.3 23.6
2014-Oct-24 17:00N 24°39' W 124°10'2 0.6 23.3
2014-Oct-24 14:00N 24°40' W 124°08'0 0.4 23.5
2014-Oct-24 13:00N 24°40' W 124°08'2 0.5 23.5
2014-Oct-24 09:00N 24°41' W 124°06'0 0.0 23.5
2014-Oct-24 06:00N 24°41' W 124°06'1 1.1 23.5
2014-Oct-24 05:00N 24°42' W 124°05'0 0.0 23.5
2014-Oct-24 04:00N 24°42' W 124°05'0 0.1 23.5
2014-Oct-24 01:00N 24°42' W 124°05'1 0.3 23.5
2014-Oct-23 23:00N 24°42' W 124°04'0 0.0 23.6
2014-Oct-23 22:00N 24°42' W 124°04'3 0.5 23.6
2014-Oct-23 16:00N 24°43' W 124°01'1 0.5 23.5
2014-Oct-23 14:00N 24°44' W 124°01'0 0.0 23.5
2014-Oct-23 13:00N 24°44' W 124°01'1 0.3 23.5
2014-Oct-23 11:00N 24°44' W 124°00'3 3.1 23.5
2014-Oct-23 10:00N 24°46' W 123°58'0 0.1 23.6
2014-Oct-23 01:00N 24°47' W 123°58'3 0.4 23.6
2014-Oct-22 17:00N 24°49' W 123°56'0 0.0 23.6
2014-Oct-22 16:00N 24°49' W 123°56'4 0.9 23.6
2014-Oct-22 12:00N 24°52' W 123°54'0 0.0 23.6
2014-Oct-22 11:00N 24°52' W 123°54'0 0.0 23.6
2014-Oct-22 10:00N 24°52' W 123°54'0 0.0 23.6
2014-Oct-22 06:00N 24°52' W 123°54'1 0.5 23.6
2014-Oct-22 04:00N 24°53' W 123°53'1 0.3 23.6
2014-Oct-22 02:00N 24°53' W 123°53'0 0.0 23.7
2014-Oct-22 01:00N 24°53' W 123°53'1 1.2 23.7
2014-Oct-22 00:00N 24°54' W 123°52'3 1.4 23.7
2014-Oct-21 22:00N 24°56' W 123°50'1 0.2 23.7
2014-Oct-21 18:00N 24°57' W 123°50'   23.7
Track history (hours):
 
Tides and Currents Weather Stations Pressure Air Temp Water Temp Dewpoint Dewpoint Depression Visibility Wind Speed Wind Dir Waves Ship Positions

Drifting buoy 46563

Last reported at 2014-Oct-31 17:00 UTC. Time now 2014-Oct-31 21:29 UTC.
Position N 24°47' W 125°07'.

Water temperature 23.5 ° C

Date/timePositionNaut miles runAvg speedWind from/ knotsBaromVisibWave heightAir tempDewpointWater temp
2014-Oct-31 17:00N 24°47' W 125°07'1 0.2 23.5
2014-Oct-31 14:00N 24°47' W 125°07'1 0.3 23.5
2014-Oct-31 12:00N 24°47' W 125°06'0 0.0 23.6
2014-Oct-31 11:00N 24°47' W 125°06'1 0.5 23.5
2014-Oct-31 10:00N 24°46' W 125°06'0 0.1 23.6
2014-Oct-31 06:00N 24°47' W 125°06'0 0.2 23.5
2014-Oct-31 05:00N 24°46' W 125°06'1 0.3 23.5
2014-Oct-31 02:00N 24°46' W 125°05'0 0.5 23.5
2014-Oct-31 01:00N 24°46' W 125°05'1 0.9 23.6
2014-Oct-31 00:00N 24°45' W 125°05'2 0.9 23.7
2014-Oct-30 22:00N 24°44' W 125°04'0 0.0 23.7
2014-Oct-30 19:00N 24°44' W 125°04'0 0.5 23.5
2014-Oct-30 18:00N 24°43' W 125°04'0 0.3 23.5
2014-Oct-30 17:00N 24°44' W 125°04'2 0.6 23.4
2014-Oct-30 14:00N 24°43' W 125°02'1 0.4 23.4
2014-Oct-30 12:00N 24°43' W 125°01'0 0.1 23.4
2014-Oct-30 10:00N 24°43' W 125°01'1 0.5 23.4
2014-Oct-30 08:00N 24°44' W 125°00'0 0.1 23.5
2014-Oct-30 06:00N 24°44' W 124°60'0 0.5 23.5
2014-Oct-30 05:00N 24°44' W 125°00'1 0.3 23.5
2014-Oct-30 03:00N 24°44' W 124°60'1 0.4 23.5
2014-Oct-30 00:00N 24°43' W 124°58'3 1.3 23.6
2014-Oct-29 22:00N 24°42' W 124°56'0 0.0 23.6
2014-Oct-29 21:00N 24°42' W 124°56'0 0.0 23.5
2014-Oct-29 19:00N 24°42' W 124°56'1 0.2 23.5
2014-Oct-29 15:00N 24°41' W 124°55'2 0.9 23.5
2014-Oct-29 13:00N 24°41' W 124°53'0 0.0 23.5
2014-Oct-29 10:00N 24°41' W 124°53'2 1.7 23.5
2014-Oct-29 09:00N 24°40' W 124°51'1 0.2 23.5
2014-Oct-29 06:00N 24°40' W 124°51'0 0.1 23.5
2014-Oct-29 05:00N 24°40' W 124°51'1 0.4 23.5
2014-Oct-29 02:00N 24°41' W 124°50'0 0.2 23.6
2014-Oct-29 01:00N 24°41' W 124°49'1 1.5 23.6
2014-Oct-29 00:00N 24°41' W 124°48'0 0.0 23.6
2014-Oct-28 22:00N 24°41' W 124°48'0 0.3 23.6
2014-Oct-28 21:00N 24°41' W 124°48'1 1.0 23.6
2014-Oct-28 20:00N 24°42' W 124°47'0 0.1 23.6
2014-Oct-28 18:00N 24°41' W 124°47'2 1.7 23.5
2014-Oct-28 17:00N 24°42' W 124°45'0 0.0 23.5
2014-Oct-28 14:00N 24°42' W 124°45'1 1.1 23.5
2014-Oct-28 13:00N 24°42' W 124°44'0 0.1 23.5
2014-Oct-28 12:00N 24°42' W 124°44'0 0.4 23.5
2014-Oct-28 11:00N 24°42' W 124°44'0 0.0 23.5
2014-Oct-28 10:00N 24°42' W 124°44'2 1.1 23.5
2014-Oct-28 08:00N 24°43' W 124°41'1 0.1 23.5
2014-Oct-28 02:00N 24°43' W 124°41'1 1.3 23.6
2014-Oct-28 01:00N 24°42' W 124°39'1 0.5 23.6
2014-Oct-28 00:00N 24°42' W 124°39'0 0.0 23.6
2014-Oct-27 23:00N 24°42' W 124°39'1 0.9 23.6
2014-Oct-27 22:00N 24°42' W 124°38'1 0.3 23.6
2014-Oct-27 18:00N 24°42' W 124°37'1 0.8 23.4
2014-Oct-27 17:00N 24°42' W 124°36'0 0.0 23.4
2014-Oct-27 16:00N 24°42' W 124°36'0 0.1 23.3
2014-Oct-27 14:00N 24°42' W 124°36'0 0.3 23.4
2014-Oct-27 13:00N 24°42' W 124°36'1 0.3 23.4
2014-Oct-27 11:00N 24°41' W 124°35'0 0.0 23.3
2014-Oct-27 10:00N 24°41' W 124°35'0 0.1 23.3
2014-Oct-27 09:00N 24°41' W 124°35'2 0.7 23.3
2014-Oct-27 06:00N 24°41' W 124°33'1 1.3 23.3
2014-Oct-27 05:00N 24°40' W 124°32'0 0.0 23.3
2014-Oct-27 04:00N 24°40' W 124°32'1 0.7 23.4
2014-Oct-27 03:00N 24°40' W 124°32'2 0.9 23.4
2014-Oct-27 01:00N 24°40' W 124°30'1 0.4 23.4
2014-Oct-26 23:00N 24°41' W 124°29'0 0.2 23.5
2014-Oct-26 22:00N 24°41' W 124°29'1 0.7 23.5
2014-Oct-26 21:00N 24°41' W 124°28'1 1.3 23.4
2014-Oct-26 20:00N 24°41' W 124°27'0 0.1 23.4
2014-Oct-26 18:00N 24°42' W 124°27'1 0.6 23.3
2014-Oct-26 17:00N 24°41' W 124°26'1 0.2 23.3
2014-Oct-26 14:00N 24°41' W 124°25'0 0.1 23.3
2014-Oct-26 13:00N 24°41' W 124°25'0 0.3 23.3
2014-Oct-26 12:00N 24°41' W 124°25'0 0.2 23.3
2014-Oct-26 11:00N 24°41' W 124°25'0 0.5 23.3
2014-Oct-26 10:00N 24°41' W 124°24'0 0.1 23.3
2014-Oct-26 09:00N 24°41' W 124°24'1 1.4 23.3
2014-Oct-26 08:00N 24°41' W 124°23'0 0.2 23.3
2014-Oct-26 06:00N 24°41' W 124°23'0 0.0 23.3
2014-Oct-26 05:00N 24°41' W 124°23'0 0.4 23.3
2014-Oct-26 04:00N 24°40' W 124°23'1 0.4 23.3
2014-Oct-26 02:00N 24°40' W 124°22'1 1.0 23.4
2014-Oct-26 01:00N 24°40' W 124°20'2 0.5 23.4
2014-Oct-25 20:00N 24°40' W 124°18'0 0.1 23.5
2014-Oct-25 19:00N 24°40' W 124°18'1 1.3 23.4
2014-Oct-25 18:00N 24°40' W 124°17'0 0.0 23.4
2014-Oct-25 17:00N 24°40' W 124°17'0 0.1 23.3
2014-Oct-25 13:00N 24°41' W 124°16'0 0.0 23.3
2014-Oct-25 12:00N 24°41' W 124°16'1 0.5 23.4
2014-Oct-25 11:00N 24°40' W 124°16'1 0.4 23.3
2014-Oct-25 09:00N 24°40' W 124°15'0 0.1 23.4
2014-Oct-25 05:00N 24°40' W 124°15'1 1.1 23.4
2014-Oct-25 04:00N 24°39' W 124°13'0 0.1 23.4
2014-Oct-25 01:00N 24°39' W 124°13'1 0.7 23.5
2014-Oct-24 23:00N 24°39' W 124°12'1 0.5 23.7
2014-Oct-24 22:00N 24°39' W 124°11'0 0.0 23.7
2014-Oct-24 21:00N 24°39' W 124°11'1 0.3 23.6
2014-Oct-24 17:00N 24°39' W 124°10'2 0.6 23.3
2014-Oct-24 14:00N 24°40' W 124°08'0 0.4 23.5
2014-Oct-24 13:00N 24°40' W 124°08'2 0.5 23.5
2014-Oct-24 09:00N 24°41' W 124°06'0 0.0 23.5
2014-Oct-24 06:00N 24°41' W 124°06'1 1.1 23.5
2014-Oct-24 05:00N 24°42' W 124°05'0 0.0 23.5
2014-Oct-24 04:00N 24°42' W 124°05'0 0.1 23.5
2014-Oct-24 01:00N 24°42' W 124°05'1 0.3 23.5
2014-Oct-23 23:00N 24°42' W 124°04'0 0.0 23.6
2014-Oct-23 22:00N 24°42' W 124°04'3 0.5 23.6
2014-Oct-23 16:00N 24°43' W 124°01'1 0.5 23.5
2014-Oct-23 14:00N 24°44' W 124°01'0 0.0 23.5
2014-Oct-23 13:00N 24°44' W 124°01'1 0.3 23.5
2014-Oct-23 11:00N 24°44' W 124°00'3 3.1 23.5
2014-Oct-23 10:00N 24°46' W 123°58'0 0.1 23.6
2014-Oct-23 01:00N 24°47' W 123°58'3 0.4 23.6
2014-Oct-22 17:00N 24°49' W 123°56'0 0.0 23.6
2014-Oct-22 16:00N 24°49' W 123°56'4 0.9 23.6
2014-Oct-22 12:00N 24°52' W 123°54'0 0.0 23.6
2014-Oct-22 11:00N 24°52' W 123°54'0 0.0 23.6
2014-Oct-22 10:00N 24°52' W 123°54'0 0.0 23.6
2014-Oct-22 06:00N 24°52' W 123°54'1 0.5 23.6
2014-Oct-22 04:00N 24°53' W 123°53'1 0.3 23.6
2014-Oct-22 02:00N 24°53' W 123°53'0 0.0 23.7
2014-Oct-22 01:00N 24°53' W 123°53'1 1.2 23.7
2014-Oct-22 00:00N 24°54' W 123°52'3 1.4 23.7
2014-Oct-21 22:00N 24°56' W 123°50'1 0.2 23.7
2014-Oct-21 18:00N 24°57' W 123°50'   23.7

Dump ship's entire track history